sensor_id;sensor_type;location;lat;lon;timestamp;temperature;humidity
49238;DHT22;35069;47.906;1.892;2023-12-20T00:02:21;8.90;94.50
49238;DHT22;35069;47.906;1.892;2023-12-20T00:04:47;8.90;94.60
49238;DHT22;35069;47.906;1.892;2023-12-20T00:07:12;8.90;94.50
49238;DHT22;35069;47.906;1.892;2023-12-20T00:09:38;8.90;94.50
49238;DHT22;35069;47.906;1.892;2023-12-20T00:12:04;8.90;94.40
49238;DHT22;35069;47.906;1.892;2023-12-20T00:14:29;8.90;94.40
49238;DHT22;35069;47.906;1.892;2023-12-20T00:16:55;8.90;94.40
49238;DHT22;35069;47.906;1.892;2023-12-20T00:19:20;8.90;94.40
49238;DHT22;35069;47.906;1.892;2023-12-20T00:21:46;8.90;94.30
49238;DHT22;35069;47.906;1.892;2023-12-20T00:24:11;8.90;94.30
49238;DHT22;35069;47.906;1.892;2023-12-20T00:26:37;8.90;94.30
49238;DHT22;35069;47.906;1.892;2023-12-20T00:29:02;8.90;94.30
49238;DHT22;35069;47.906;1.892;2023-12-20T00:31:28;8.90;94.40
49238;DHT22;35069;47.906;1.892;2023-12-20T00:33:53;8.90;94.40
49238;DHT22;35069;47.906;1.892;2023-12-20T00:36:20;8.90;94.30
49238;DHT22;35069;47.906;1.892;2023-12-20T00:38:45;8.90;94.50
49238;DHT22;35069;47.906;1.892;2023-12-20T00:59:55;8.90;94.40
49238;DHT22;35069;47.906;1.892;2023-12-20T01:02:21;8.90;94.40
49238;DHT22;35069;47.906;1.892;2023-12-20T01:04:46;8.90;94.30
49238;DHT22;35069;47.906;1.892;2023-12-20T01:07:12;8.90;94.30
49238;DHT22;35069;47.906;1.892;2023-12-20T01:09:37;8.90;94.30
49238;DHT22;35069;47.906;1.892;2023-12-20T01:12:03;8.90;94.30
49238;DHT22;35069;47.906;1.892;2023-12-20T01:14:29;8.90;94.30
49238;DHT22;35069;47.906;1.892;2023-12-20T01:16:54;8.90;94.30
49238;DHT22;35069;47.906;1.892;2023-12-20T01:19:20;8.90;94.20
49238;DHT22;35069;47.906;1.892;2023-12-20T01:21:45;8.90;94.30
49238;DHT22;35069;47.906;1.892;2023-12-20T01:24:11;8.90;94.30
49238;DHT22;35069;47.906;1.892;2023-12-20T01:26:36;8.90;94.20
49238;DHT22;35069;47.906;1.892;2023-12-20T01:29:02;8.90;94.20
49238;DHT22;35069;47.906;1.892;2023-12-20T01:31:28;8.90;94.20
49238;DHT22;35069;47.906;1.892;2023-12-20T01:33:53;8.90;94.10
49238;DHT22;35069;47.906;1.892;2023-12-20T01:36:19;8.90;94.10
49238;DHT22;35069;47.906;1.892;2023-12-20T01:38:45;8.80;94.00
49238;DHT22;35069;47.906;1.892;2023-12-20T01:41:10;8.80;93.90
49238;DHT22;35069;47.906;1.892;2023-12-20T01:43:36;8.80;93.90
49238;DHT22;35069;47.906;1.892;2023-12-20T01:46:02;8.70;93.90
49238;DHT22;35069;47.906;1.892;2023-12-20T01:48:29;8.70;93.90
49238;DHT22;35069;47.906;1.892;2023-12-20T01:50:55;8.70;93.90
49238;DHT22;35069;47.906;1.892;2023-12-20T01:53:22;8.70;93.80
49238;DHT22;35069;47.906;1.892;2023-12-20T01:55:50;8.70;93.70
49238;DHT22;35069;47.906;1.892;2023-12-20T01:58:18;8.60;93.60
49238;DHT22;35069;47.906;1.892;2023-12-20T02:00:44;8.60;93.70
49238;DHT22;35069;47.906;1.892;2023-12-20T02:03:10;8.60;93.60
49238;DHT22;35069;47.906;1.892;2023-12-20T02:05:38;8.50;93.70
49238;DHT22;35069;47.906;1.892;2023-12-20T02:08:04;8.50;93.60
49238;DHT22;35069;47.906;1.892;2023-12-20T02:10:31;8.50;93.40
49238;DHT22;35069;47.906;1.892;2023-12-20T02:12:57;8.40;93.30
49238;DHT22;35069;47.906;1.892;2023-12-20T02:15:22;8.40;93.40
49238;DHT22;35069;47.906;1.892;2023-12-20T02:17:49;8.40;93.50
49238;DHT22;35069;47.906;1.892;2023-12-20T02:20:14;8.30;93.30
49238;DHT22;35069;47.906;1.892;2023-12-20T02:22:40;8.20;93.20
49238;DHT22;35069;47.906;1.892;2023-12-20T02:35:12;7.90;92.70
49238;DHT22;35069;47.906;1.892;2023-12-20T02:37:38;7.90;92.70
49238;DHT22;35069;47.906;1.892;2023-12-20T02:40:03;7.90;92.70
49238;DHT22;35069;47.906;1.892;2023-12-20T02:42:29;7.90;92.60
49238;DHT22;35069;47.906;1.892;2023-12-20T02:44:55;7.90;92.60
49238;DHT22;35069;47.906;1.892;2023-12-20T02:47:20;7.90;92.60
49238;DHT22;35069;47.906;1.892;2023-12-20T02:49:46;7.90;92.60
49238;DHT22;35069;47.906;1.892;2023-12-20T02:52:11;8.00;92.60
49238;DHT22;35069;47.906;1.892;2023-12-20T02:54:37;8.00;92.50
49238;DHT22;35069;47.906;1.892;2023-12-20T02:57:03;8.00;92.40
49238;DHT22;35069;47.906;1.892;2023-12-20T02:59:28;8.00;92.30
49238;DHT22;35069;47.906;1.892;2023-12-20T03:01:54;8.10;92.40
49238;DHT22;35069;47.906;1.892;2023-12-20T03:04:19;8.10;92.30
49238;DHT22;35069;47.906;1.892;2023-12-20T03:06:45;8.10;92.40
49238;DHT22;35069;47.906;1.892;2023-12-20T03:09:11;8.20;92.50
49238;DHT22;35069;47.906;1.892;2023-12-20T03:11:36;8.20;92.40
49238;DHT22;35069;47.906;1.892;2023-12-20T03:14:02;8.20;92.30
49238;DHT22;35069;47.906;1.892;2023-12-20T03:16:27;8.10;92.10
49238;DHT22;35069;47.906;1.892;2023-12-20T03:18:53;8.10;92.10
49238;DHT22;35069;47.906;1.892;2023-12-20T03:21:18;8.10;92.00
49238;DHT22;35069;47.906;1.892;2023-12-20T03:23:45;8.00;91.80
49238;DHT22;35069;47.906;1.892;2023-12-20T03:26:10;8.00;91.80
49238;DHT22;35069;47.906;1.892;2023-12-20T03:28:36;7.90;91.70
49238;DHT22;35069;47.906;1.892;2023-12-20T03:31:03;7.90;91.60
49238;DHT22;35069;47.906;1.892;2023-12-20T03:33:29;7.80;91.70
49238;DHT22;35069;47.906;1.892;2023-12-20T03:58:43;7.50;91.10
49238;DHT22;35069;47.906;1.892;2023-12-20T04:01:11;7.40;91.00
49238;DHT22;35069;47.906;1.892;2023-12-20T04:03:38;7.40;90.90
49238;DHT22;35069;47.906;1.892;2023-12-20T04:06:05;7.40;90.90
49238;DHT22;35069;47.906;1.892;2023-12-20T04:08:31;7.40;90.90
49238;DHT22;35069;47.906;1.892;2023-12-20T04:10:57;7.40;90.90
49238;DHT22;35069;47.906;1.892;2023-12-20T04:13:22;7.30;90.80
49238;DHT22;35069;47.906;1.892;2023-12-20T04:15:48;7.30;90.80
49238;DHT22;35069;47.906;1.892;2023-12-20T04:18:15;7.20;90.70
49238;DHT22;35069;47.906;1.892;2023-12-20T04:20:41;7.20;90.70
49238;DHT22;35069;47.906;1.892;2023-12-20T04:23:06;7.20;90.60
49238;DHT22;35069;47.906;1.892;2023-12-20T04:25:32;7.10;90.60
49238;DHT22;35069;47.906;1.892;2023-12-20T04:27:57;7.10;90.60
49238;DHT22;35069;47.906;1.892;2023-12-20T04:30:23;7.00;90.50
49238;DHT22;35069;47.906;1.892;2023-12-20T04:32:48;7.00;90.50
49238;DHT22;35069;47.906;1.892;2023-12-20T04:35:14;7.00;90.50
49238;DHT22;35069;47.906;1.892;2023-12-20T04:37:39;7.00;90.50
49238;DHT22;35069;47.906;1.892;2023-12-20T04:40:05;6.90;90.50
49238;DHT22;35069;47.906;1.892;2023-12-20T04:42:31;6.90;90.50
49238;DHT22;35069;47.906;1.892;2023-12-20T04:44:57;6.90;90.60
49238;DHT22;35069;47.906;1.892;2023-12-20T04:47:22;6.90;90.50
49238;DHT22;35069;47.906;1.892;2023-12-20T04:49:48;6.80;90.50
49238;DHT22;35069;47.906;1.892;2023-12-20T04:52:14;6.80;90.70
49238;DHT22;35069;47.906;1.892;2023-12-20T04:54:40;6.70;90.40
49238;DHT22;35069;47.906;1.892;2023-12-20T04:57:05;6.80;90.50
49238;DHT22;35069;47.906;1.892;2023-12-20T04:59:31;6.70;90.40
49238;DHT22;35069;47.906;1.892;2023-12-20T05:01:56;6.70;90.50
49238;DHT22;35069;47.906;1.892;2023-12-20T05:04:23;6.70;90.50
49238;DHT22;35069;47.906;1.892;2023-12-20T05:06:48;6.60;90.40
49238;DHT22;35069;47.906;1.892;2023-12-20T05:09:15;6.60;90.40
49238;DHT22;35069;47.906;1.892;2023-12-20T05:11:41;6.60;90.40
49238;DHT22;35069;47.906;1.892;2023-12-20T05:14:06;6.60;90.40
49238;DHT22;35069;47.906;1.892;2023-12-20T05:16:32;6.50;90.30
49238;DHT22;35069;47.906;1.892;2023-12-20T05:18:58;6.50;90.40
49238;DHT22;35069;47.906;1.892;2023-12-20T05:21:26;6.50;90.40
49238;DHT22;35069;47.906;1.892;2023-12-20T05:23:51;6.50;90.40
49238;DHT22;35069;47.906;1.892;2023-12-20T05:26:17;6.50;90.50
49238;DHT22;35069;47.906;1.892;2023-12-20T05:28:42;6.50;90.50
49238;DHT22;35069;47.906;1.892;2023-12-20T05:31:08;6.50;90.40
49238;DHT22;35069;47.906;1.892;2023-12-20T05:33:34;6.50;90.50
49238;DHT22;35069;47.906;1.892;2023-12-20T05:35:59;6.50;90.50
49238;DHT22;35069;47.906;1.892;2023-12-20T05:38:25;6.50;90.50
49238;DHT22;35069;47.906;1.892;2023-12-20T05:40:51;6.50;90.50
49238;DHT22;35069;47.906;1.892;2023-12-20T05:43:16;6.50;90.50
49238;DHT22;35069;47.906;1.892;2023-12-20T05:52:39;6.50;90.60
49238;DHT22;35069;47.906;1.892;2023-12-20T05:55:05;6.50;90.80
49238;DHT22;35069;47.906;1.892;2023-12-20T05:57:31;6.50;90.70
49238;DHT22;35069;47.906;1.892;2023-12-20T05:59:56;6.50;90.70
49238;DHT22;35069;47.906;1.892;2023-12-20T06:02:22;6.50;90.70
49238;DHT22;35069;47.906;1.892;2023-12-20T06:04:47;6.50;90.70
49238;DHT22;35069;47.906;1.892;2023-12-20T06:07:13;6.60;90.90
49238;DHT22;35069;47.906;1.892;2023-12-20T06:09:39;6.50;90.90
49238;DHT22;35069;47.906;1.892;2023-12-20T06:12:04;6.60;90.90
49238;DHT22;35069;47.906;1.892;2023-12-20T06:14:30;6.60;90.70
49238;DHT22;35069;47.906;1.892;2023-12-20T06:16:56;6.60;90.70
49238;DHT22;35069;47.906;1.892;2023-12-20T06:19:22;6.60;90.60
49238;DHT22;35069;47.906;1.892;2023-12-20T06:21:47;6.50;90.60
49238;DHT22;35069;47.906;1.892;2023-12-20T06:24:13;6.60;90.50
49238;DHT22;35069;47.906;1.892;2023-12-20T06:26:39;6.50;90.50
49238;DHT22;35069;47.906;1.892;2023-12-20T06:29:04;6.50;90.60
49238;DHT22;35069;47.906;1.892;2023-12-20T06:31:30;6.50;90.60
49238;DHT22;35069;47.906;1.892;2023-12-20T06:33:58;6.60;90.60
49238;DHT22;35069;47.906;1.892;2023-12-20T06:36:25;6.50;90.40
49238;DHT22;35069;47.906;1.892;2023-12-20T06:38:51;6.50;90.40
49238;DHT22;35069;47.906;1.892;2023-12-20T06:41:16;6.60;90.50
49238;DHT22;35069;47.906;1.892;2023-12-20T06:43:42;6.50;90.40
49238;DHT22;35069;47.906;1.892;2023-12-20T06:46:08;6.50;90.50
49238;DHT22;35069;47.906;1.892;2023-12-20T06:48:34;6.60;90.60
49238;DHT22;35069;47.906;1.892;2023-12-20T06:51:00;6.60;90.70
49238;DHT22;35069;47.906;1.892;2023-12-20T07:05:22;6.60;90.70
49238;DHT22;35069;47.906;1.892;2023-12-20T07:07:47;6.70;90.80
49238;DHT22;35069;47.906;1.892;2023-12-20T07:10:13;6.70;90.60
49238;DHT22;35069;47.906;1.892;2023-12-20T07:12:39;6.60;90.50
49238;DHT22;35069;47.906;1.892;2023-12-20T07:15:05;6.60;90.70
49238;DHT22;35069;47.906;1.892;2023-12-20T07:17:34;6.60;90.40
49238;DHT22;35069;47.906;1.892;2023-12-20T07:20:00;6.50;90.50
49238;DHT22;35069;47.906;1.892;2023-12-20T07:22:33;6.50;90.50
49238;DHT22;35069;47.906;1.892;2023-12-20T07:24:59;6.50;90.50
49238;DHT22;35069;47.906;1.892;2023-12-20T07:27:24;6.50;90.50
49238;DHT22;35069;47.906;1.892;2023-12-20T07:29:51;6.50;90.60
49238;DHT22;35069;47.906;1.892;2023-12-20T07:32:16;6.50;90.70
49238;DHT22;35069;47.906;1.892;2023-12-20T07:34:42;6.50;90.60
49238;DHT22;35069;47.906;1.892;2023-12-20T07:37:07;6.50;90.60
49238;DHT22;35069;47.906;1.892;2023-12-20T07:39:35;6.50;90.50
49238;DHT22;35069;47.906;1.892;2023-12-20T07:42:01;6.50;90.50
49238;DHT22;35069;47.906;1.892;2023-12-20T07:44:26;6.50;90.50
49238;DHT22;35069;47.906;1.892;2023-12-20T07:46:52;6.40;90.50
49238;DHT22;35069;47.906;1.892;2023-12-20T07:49:19;6.50;90.70
49238;DHT22;35069;47.906;1.892;2023-12-20T07:51:44;6.50;90.70
49238;DHT22;35069;47.906;1.892;2023-12-20T07:54:10;6.50;90.70
49238;DHT22;35069;47.906;1.892;2023-12-20T07:56:35;6.50;90.60
49238;DHT22;35069;47.906;1.892;2023-12-20T07:59:01;6.60;90.80
49238;DHT22;35069;47.906;1.892;2023-12-20T08:01:27;6.60;90.80
49238;DHT22;35069;47.906;1.892;2023-12-20T08:03:52;6.60;90.80
49238;DHT22;35069;47.906;1.892;2023-12-20T08:27:27;6.60;90.10
49238;DHT22;35069;47.906;1.892;2023-12-20T08:29:52;6.60;90.30
49238;DHT22;35069;47.906;1.892;2023-12-20T08:32:18;6.60;90.30
49238;DHT22;35069;47.906;1.892;2023-12-20T08:34:43;6.60;90.30
49238;DHT22;35069;47.906;1.892;2023-12-20T08:37:09;6.60;90.30
49238;DHT22;35069;47.906;1.892;2023-12-20T08:39:34;6.60;90.30
49238;DHT22;35069;47.906;1.892;2023-12-20T08:42:00;6.60;90.20
49238;DHT22;35069;47.906;1.892;2023-12-20T08:44:25;6.70;90.30
49238;DHT22;35069;47.906;1.892;2023-12-20T08:46:51;6.70;90.30
49238;DHT22;35069;47.906;1.892;2023-12-20T08:49:17;6.70;90.30
49238;DHT22;35069;47.906;1.892;2023-12-20T08:51:42;6.70;90.40
49238;DHT22;35069;47.906;1.892;2023-12-20T08:54:08;6.80;90.30
49238;DHT22;35069;47.906;1.892;2023-12-20T08:56:34;6.80;90.20
49238;DHT22;35069;47.906;1.892;2023-12-20T08:58:59;6.90;90.20
49238;DHT22;35069;47.906;1.892;2023-12-20T09:01:25;6.90;90.20
49238;DHT22;35069;47.906;1.892;2023-12-20T09:03:50;6.80;90.10
49238;DHT22;35069;47.906;1.892;2023-12-20T09:06:16;6.90;90.30
49238;DHT22;35069;47.906;1.892;2023-12-20T09:08:42;7.00;90.30
49238;DHT22;35069;47.906;1.892;2023-12-20T09:11:07;7.00;90.30
49238;DHT22;35069;47.906;1.892;2023-12-20T09:13:33;7.10;90.30
49238;DHT22;35069;47.906;1.892;2023-12-20T09:15:58;7.10;90.10
49238;DHT22;35069;47.906;1.892;2023-12-20T09:18:25;7.10;90.10
49238;DHT22;35069;47.906;1.892;2023-12-20T09:20:51;7.20;90.10
49238;DHT22;35069;47.906;1.892;2023-12-20T09:23:17;7.20;90.10
49238;DHT22;35069;47.906;1.892;2023-12-20T09:25:43;7.20;90.20
49238;DHT22;35069;47.906;1.892;2023-12-20T09:28:09;7.30;90.30
49238;DHT22;35069;47.906;1.892;2023-12-20T10:22:30;14.30;84.50
49238;DHT22;35069;47.906;1.892;2023-12-20T10:24:56;14.20;84.00
49238;DHT22;35069;47.906;1.892;2023-12-20T10:27:22;14.50;82.50
49238;DHT22;35069;47.906;1.892;2023-12-20T10:29:47;14.90;82.00
49238;DHT22;35069;47.906;1.892;2023-12-20T10:32:26;15.50;81.00
49238;DHT22;35069;47.906;1.892;2023-12-20T10:34:54;15.80;69.10
49238;DHT22;35069;47.906;1.892;2023-12-20T10:37:20;16.00;77.90
49238;DHT22;35069;47.906;1.892;2023-12-20T10:39:53;16.50;76.30
49238;DHT22;35069;47.906;1.892;2023-12-20T10:42:24;17.10;70.00
49238;DHT22;35069;47.906;1.892;2023-12-20T10:44:51;17.50;73.30
49238;DHT22;35069;47.906;1.892;2023-12-20T10:47:19;17.40;73.10
49238;DHT22;35069;47.906;1.892;2023-12-20T10:49:45;17.70;72.00
49238;DHT22;35069;47.906;1.892;2023-12-20T10:52:12;18.20;71.30
49238;DHT22;35069;47.906;1.892;2023-12-20T10:54:39;18.60;70.10
49238;DHT22;35069;47.906;1.892;2023-12-20T10:57:06;18.80;69.80
49238;DHT22;35069;47.906;1.892;2023-12-20T10:59:33;19.00;69.20
49238;DHT22;35069;47.906;1.892;2023-12-20T11:02:03;19.40;65.20
49238;DHT22;35069;47.906;1.892;2023-12-20T11:04:39;19.80;66.00
49238;DHT22;35069;47.906;1.892;2023-12-20T11:07:18;19.50;61.80
49238;DHT22;35069;47.906;1.892;2023-12-20T11:09:51;19.90;58.90
49238;DHT22;35069;47.906;1.892;2023-12-20T11:12:48;18.90;62.50
49238;DHT22;35069;47.906;1.892;2023-12-20T11:15:16;17.70;56.20
49238;DHT22;35069;47.906;1.892;2023-12-20T11:17:44;16.40;64.50
49238;DHT22;35069;47.906;1.892;2023-12-20T11:20:11;15.60;65.20
49238;DHT22;35069;47.906;1.892;2023-12-20T11:22:37;14.90;65.90
49238;DHT22;35069;47.906;1.892;2023-12-20T11:43:48;17.90;57.90
49238;DHT22;35069;47.906;1.892;2023-12-20T11:46:13;18.90;61.40
49238;DHT22;35069;47.906;1.892;2023-12-20T11:48:39;19.30;61.20
49238;DHT22;35069;47.906;1.892;2023-12-20T11:51:12;19.90;60.50
49238;DHT22;35069;47.906;1.892;2023-12-20T11:53:39;20.20;58.10
49238;DHT22;35069;47.906;1.892;2023-12-20T11:56:08;20.10;58.60
49238;DHT22;35069;47.906;1.892;2023-12-20T11:58:35;18.10;57.10
49238;DHT22;35069;47.906;1.892;2023-12-20T12:01:01;17.20;58.60
49238;DHT22;35069;47.906;1.892;2023-12-20T12:03:30;16.30;58.80
49238;DHT22;35069;47.906;1.892;2023-12-20T12:05:55;15.40;59.70
49238;DHT22;35069;47.906;1.892;2023-12-20T12:08:21;14.70;61.00
49238;DHT22;35069;47.906;1.892;2023-12-20T12:10:46;14.00;62.40
49238;DHT22;35069;47.906;1.892;2023-12-20T12:13:12;13.50;63.80
49238;DHT22;35069;47.906;1.892;2023-12-20T12:15:40;13.40;65.50
49238;DHT22;35069;47.906;1.892;2023-12-20T12:18:07;13.50;65.20
49238;DHT22;35069;47.906;1.892;2023-12-20T12:20:33;14.40;64.70
49238;DHT22;35069;47.906;1.892;2023-12-20T12:23:00;15.40;62.50
49238;DHT22;35069;47.906;1.892;2023-12-20T12:25:26;15.60;61.20
49238;DHT22;35069;47.906;1.892;2023-12-20T12:27:52;15.90;60.20
49238;DHT22;35069;47.906;1.892;2023-12-20T12:30:18;15.70;59.50
49238;DHT22;35069;47.906;1.892;2023-12-20T12:32:44;15.30;59.50
49238;DHT22;35069;47.906;1.892;2023-12-20T12:35:10;14.50;60.50
49238;DHT22;35069;47.906;1.892;2023-12-20T12:37:38;14.60;63.10
49238;DHT22;35069;47.906;1.892;2023-12-20T12:40:15;14.50;66.50
49238;DHT22;35069;47.906;1.892;2023-12-20T12:42:43;14.20;68.70
49238;DHT22;35069;47.906;1.892;2023-12-20T12:45:09;13.90;69.10
49238;DHT22;35069;47.906;1.892;2023-12-20T12:47:35;13.60;67.30
49238;DHT22;35069;47.906;1.892;2023-12-20T12:50:01;13.30;66.90
49238;DHT22;35069;47.906;1.892;2023-12-20T12:52:27;13.10;67.10
49238;DHT22;35069;47.906;1.892;2023-12-20T12:54:53;12.70;67.20
49238;DHT22;35069;47.906;1.892;2023-12-20T15:32:22;10.00;82.20
49238;DHT22;35069;47.906;1.892;2023-12-20T15:34:48;10.00;82.20
49238;DHT22;35069;47.906;1.892;2023-12-20T15:37:14;10.00;82.50
49238;DHT22;35069;47.906;1.892;2023-12-20T15:39:41;9.90;82.80
49238;DHT22;35069;47.906;1.892;2023-12-20T15:42:07;9.90;82.40
49238;DHT22;35069;47.906;1.892;2023-12-20T15:44:33;9.80;82.50
49238;DHT22;35069;47.906;1.892;2023-12-20T15:46:58;9.80;82.50
49238;DHT22;35069;47.906;1.892;2023-12-20T15:49:24;9.80;82.80
49238;DHT22;35069;47.906;1.892;2023-12-20T15:51:50;9.80;82.90
49238;DHT22;35069;47.906;1.892;2023-12-20T15:54:15;9.80;83.10
49238;DHT22;35069;47.906;1.892;2023-12-20T15:56:41;9.80;83.20
49238;DHT22;35069;47.906;1.892;2023-12-20T15:59:10;9.80;83.20
49238;DHT22;35069;47.906;1.892;2023-12-20T16:01:35;9.80;83.90
49238;DHT22;35069;47.906;1.892;2023-12-20T16:04:01;9.80;83.40
49238;DHT22;35069;47.906;1.892;2023-12-20T16:06:27;9.80;83.40
49238;DHT22;35069;47.906;1.892;2023-12-20T16:08:53;9.80;83.70
49238;DHT22;35069;47.906;1.892;2023-12-20T16:11:18;9.70;83.50
49238;DHT22;35069;47.906;1.892;2023-12-20T16:13:45;9.70;83.70
49238;DHT22;35069;47.906;1.892;2023-12-20T16:16:11;9.70;83.60
49238;DHT22;35069;47.906;1.892;2023-12-20T16:18:36;9.70;83.70
49238;DHT22;35069;47.906;1.892;2023-12-20T16:21:02;9.70;83.70
49238;DHT22;35069;47.906;1.892;2023-12-20T16:23:29;9.70;83.60
49238;DHT22;35069;47.906;1.892;2023-12-20T16:25:54;9.70;83.70
49238;DHT22;35069;47.906;1.892;2023-12-20T16:28:20;9.70;83.80
49238;DHT22;35069;47.906;1.892;2023-12-20T16:30:46;9.70;84.00
49238;DHT22;35069;47.906;1.892;2023-12-20T16:33:12;9.70;84.00
49238;DHT22;35069;47.906;1.892;2023-12-20T16:35:39;9.70;84.10
49238;DHT22;35069;47.906;1.892;2023-12-20T16:38:05;9.70;84.30
49238;DHT22;35069;47.906;1.892;2023-12-20T16:40:30;9.60;84.70
49238;DHT22;35069;47.906;1.892;2023-12-20T16:42:56;9.60;84.80
49238;DHT22;35069;47.906;1.892;2023-12-20T16:45:22;9.60;85.20
49238;DHT22;35069;47.906;1.892;2023-12-20T16:47:48;9.60;85.40
49238;DHT22;35069;47.906;1.892;2023-12-20T16:50:13;9.50;85.50
49238;DHT22;35069;47.906;1.892;2023-12-20T16:52:40;9.60;85.90
49238;DHT22;35069;47.906;1.892;2023-12-20T16:55:09;9.50;86.30
49238;DHT22;35069;47.906;1.892;2023-12-20T16:57:35;9.50;86.20
49238;DHT22;35069;47.906;1.892;2023-12-20T17:00:01;9.50;86.70
49238;DHT22;35069;47.906;1.892;2023-12-20T17:20:42;9.30;88.40
49238;DHT22;35069;47.906;1.892;2023-12-20T20:57:45;9.10;92.90
49238;DHT22;35069;47.906;1.892;2023-12-20T21:00:19;9.10;92.80
49238;DHT22;35069;47.906;1.892;2023-12-20T21:39:06;9.30;92.80
49238;DHT22;35069;47.906;1.892;2023-12-20T21:41:32;9.30;92.80
49238;DHT22;35069;47.906;1.892;2023-12-20T21:43:57;9.30;92.80
49238;DHT22;35069;47.906;1.892;2023-12-20T21:46:23;9.30;92.80
49238;DHT22;35069;47.906;1.892;2023-12-20T21:48:51;9.30;92.80
49238;DHT22;35069;47.906;1.892;2023-12-20T21:51:16;9.30;92.90
49238;DHT22;35069;47.906;1.892;2023-12-20T21:53:48;9.30;92.90
49238;DHT22;35069;47.906;1.892;2023-12-20T21:56:14;9.30;92.70
49238;DHT22;35069;47.906;1.892;2023-12-20T21:58:39;9.20;93.00
49238;DHT22;35069;47.906;1.892;2023-12-20T22:01:05;9.20;93.30
49238;DHT22;35069;47.906;1.892;2023-12-20T22:03:31;9.20;93.30
49238;DHT22;35069;47.906;1.892;2023-12-20T22:05:59;9.20;93.20
49238;DHT22;35069;47.906;1.892;2023-12-20T22:08:25;9.20;93.40
49238;DHT22;35069;47.906;1.892;2023-12-20T22:10:50;9.20;93.20
49238;DHT22;35069;47.906;1.892;2023-12-20T22:13:16;9.20;93.40
49238;DHT22;35069;47.906;1.892;2023-12-20T22:15:41;9.20;93.30
49238;DHT22;35069;47.906;1.892;2023-12-20T22:18:07;9.20;93.50
49238;DHT22;35069;47.906;1.892;2023-12-20T22:20:33;9.20;93.40
49238;DHT22;35069;47.906;1.892;2023-12-20T22:23:00;9.20;93.50
49238;DHT22;35069;47.906;1.892;2023-12-20T22:25:27;9.20;93.50
49238;DHT22;35069;47.906;1.892;2023-12-20T22:27:53;9.20;93.50
49238;DHT22;35069;47.906;1.892;2023-12-20T22:30:18;9.20;93.60
49238;DHT22;35069;47.906;1.892;2023-12-20T22:32:44;9.20;93.70
49238;DHT22;35069;47.906;1.892;2023-12-20T22:35:09;9.20;93.70
49238;DHT22;35069;47.906;1.892;2023-12-20T22:37:37;9.20;93.60
49238;DHT22;35069;47.906;1.892;2023-12-20T22:40:06;9.20;93.60
49238;DHT22;35069;47.906;1.892;2023-12-20T22:46:23;9.30;93.80
49238;DHT22;35069;47.906;1.892;2023-12-20T22:49:14;9.30;93.90
49238;DHT22;35069;47.906;1.892;2023-12-20T22:51:43;9.30;94.30
49238;DHT22;35069;47.906;1.892;2023-12-20T22:54:19;9.30;94.00
49238;DHT22;35069;47.906;1.892;2023-12-20T22:56:59;9.30;93.80
49238;DHT22;35069;47.906;1.892;2023-12-20T22:59:42;9.30;93.70
49238;DHT22;35069;47.906;1.892;2023-12-20T23:02:29;9.30;93.80
49238;DHT22;35069;47.906;1.892;2023-12-20T23:05:13;9.30;93.80
49238;DHT22;35069;47.906;1.892;2023-12-20T23:07:41;9.30;93.60
49238;DHT22;35069;47.906;1.892;2023-12-20T23:10:15;9.30;93.80
49238;DHT22;35069;47.906;1.892;2023-12-20T23:13:02;9.30;93.70
49238;DHT22;35069;47.906;1.892;2023-12-20T23:15:50;9.30;93.60
49238;DHT22;35069;47.906;1.892;2023-12-20T23:18:53;9.30;93.60
49238;DHT22;35069;47.906;1.892;2023-12-20T23:21:49;9.40;93.70
49238;DHT22;35069;47.906;1.892;2023-12-20T23:24:37;9.40;93.70
49238;DHT22;35069;47.906;1.892;2023-12-20T23:27:20;9.40;93.60
49238;DHT22;35069;47.906;1.892;2023-12-20T23:33:17;9.40;93.80
49238;DHT22;35069;47.906;1.892;2023-12-20T23:36:06;9.40;93.70
49238;DHT22;35069;47.906;1.892;2023-12-20T23:42:09;9.40;93.70
49238;DHT22;35069;47.906;1.892;2023-12-20T23:44:48;9.40;93.80
49238;DHT22;35069;47.906;1.892;2023-12-20T23:47:28;9.40;93.70
49238;DHT22;35069;47.906;1.892;2023-12-20T23:50:03;9.40;93.70
49238;DHT22;35069;47.906;1.892;2023-12-20T23:52:37;9.40;93.80
49238;DHT22;35069;47.906;1.892;2023-12-20T23:57:53;9.40;93.60
